Time;durP1;ratioP1;P1;durP2;ratioP2;P2;SDS_P1;SDS_P2;PMS_P1;PMS_P2;Temp;Humidity;BMP_temperature;BMP_pressure;BME280_temperature;BME280_humidity;BME280_pressure;Samples;Min_cycle;Max_cycle;Signal;HPM_P1;HPM_P2
2022/01/01 00:02:07;;;;;;;;;;;2.30;96.90;;;;;;5054665;28;19943;-67
2022/01/01 00:04:33;;;;;;;;;;;2.20;96.80;;;;;;5054632;28;19939;-67
2022/01/01 00:06:58;;;;;;;;;;;2.30;96.90;;;;;;5054596;28;20047;-67
2022/01/01 00:09:24;;;;;;;;;;;2.40;96.90;;;;;;5036504;28;20070;-67
2022/01/01 00:11:49;;;;;;;;;;;2.40;96.90;;;;;;5054689;28;19964;-67
2022/01/01 00:14:15;;;;;;;;;;;2.40;96.80;;;;;;5054492;28;19983;-67
2022/01/01 00:16:40;;;;;;;;;;;2.40;96.80;;;;;;5054674;28;19967;-67
2022/01/01 00:19:06;;;;;;;;;;;2.30;96.80;;;;;;5054392;28;20027;-67
2022/01/01 00:21:31;;;;;;;;;;;2.30;96.70;;;;;;5054614;28;19939;-67
2022/01/01 00:23:57;;;;;;;;;;;2.20;96.70;;;;;;5054260;28;19949;-67
2022/01/01 00:26:22;;;;;;;;;;;2.20;96.60;;;;;;5054146;28;19939;-67
2022/01/01 00:28:48;;;;;;;;;;;2.10;96.60;;;;;;5054117;28;19961;-67
2022/01/01 00:31:14;;;;;;;;;;;2.20;96.70;;;;;;5054056;28;19943;-67
2022/01/01 00:33:39;;;;;;;;;;;2.20;96.70;;;;;;5054052;28;20029;-67
2022/01/01 00:36:05;;;;;;;;;;;2.20;96.60;;;;;;5036177;28;19941;-67
2022/01/01 00:38:30;;;;;;;;;;;2.20;96.60;;;;;;5053999;28;19935;-67
2022/01/01 00:40:56;;;;;;;;;;;2.20;96.60;;;;;;5053722;28;19945;-67
2022/01/01 00:43:22;;;;;;;;;;;2.30;96.60;;;;;;5053917;28;19943;-67
2022/01/01 00:45:47;;;;;;;;;;;2.40;96.60;;;;;;5053848;28;19992;-67
2022/01/01 00:48:13;;;;;;;;;;;2.40;96.50;;;;;;5053817;28;20030;-67
2022/01/01 00:50:39;;;;;;;;;;;2.40;96.50;;;;;;5053735;28;19943;-67
2022/01/01 00:53:04;;;;;;;;;;;2.40;96.40;;;;;;5053646;28;20001;-67
2022/01/01 00:55:30;;;;;;;;;;;2.40;96.30;;;;;;5053631;28;19937;-67
2022/01/01 00:57:55;;;;;;;;;;;2.40;96.20;;;;;;5053627;28;19941;-67
2022/01/01 01:00:21;;;;;;;;;;;2.30;96.10;;;;;;5053612;28;20384;-68
2022/01/01 01:02:47;;;;;;;;;;;2.20;96.10;;;;;;5053760;28;19952;-67
2022/01/01 01:05:12;;;;;;;;;;;2.30;96.10;;;;;;5053552;28;19989;-67
2022/01/01 01:07:38;;;;;;;;;;;2.20;96.10;;;;;;5053742;28;20022;-67
2022/01/01 01:10:05;;;;;;;;;;;2.10;95.90;;;;;;5053135;28;20035;-67
2022/01/01 01:12:41;;;;;;;;;;;2.00;95.90;;;;;;5035627;28;20048;-67
2022/01/01 01:15:09;;;;;;;;;;;2.10;96.00;;;;;;5053349;28;19949;-67
2022/01/01 01:17:35;;;;;;;;;;;2.20;96.10;;;;;;5053315;28;19947;-67
2022/01/01 01:20:01;;;;;;;;;;;2.20;96.10;;;;;;5053291;28;19994;-67
2022/01/01 01:22:29;;;;;;;;;;;2.30;96.10;;;;;;5053264;28;20044;-67
2022/01/01 01:24:54;;;;;;;;;;;2.30;96.10;;;;;;5035352;28;19949;-67
2022/01/01 01:27:20;;;;;;;;;;;2.30;96.00;;;;;;5053360;28;19942;-67
2022/01/01 01:29:46;;;;;;;;;;;2.20;95.80;;;;;;5053180;28;20308;-67
2022/01/01 01:32:11;;;;;;;;;;;2.10;95.70;;;;;;5035252;28;20455;-67
2022/01/01 01:34:38;;;;;;;;;;;2.10;95.70;;;;;;5053080;28;20033;-67
2022/01/01 01:37:03;;;;;;;;;;;2.10;95.80;;;;;;5053059;28;19936;-67
2022/01/01 01:39:29;;;;;;;;;;;2.10;95.80;;;;;;5053064;28;19944;-67
2022/01/01 01:41:54;;;;;;;;;;;2.00;95.60;;;;;;5053024;28;19949;-67
2022/01/01 01:44:23;;;;;;;;;;;2.00;95.80;;;;;;5053009;28;19998;-67
2022/01/01 01:46:48;;;;;;;;;;;2.00;95.80;;;;;;5052980;28;19941;-68
2022/01/01 01:49:14;;;;;;;;;;;1.80;95.70;;;;;;5052934;28;20026;-67
2022/01/01 01:51:40;;;;;;;;;;;1.80;95.80;;;;;;5054273;28;19968;-67
2022/01/01 01:54:08;;;;;;;;;;;1.90;96.00;;;;;;5057348;28;19945;-67
2022/01/01 01:56:34;;;;;;;;;;;1.90;96.00;;;;;;5057036;28;19936;-67
2022/01/01 01:59:00;;;;;;;;;;;2.00;96.10;;;;;;5057011;28;19943;-67
2022/01/01 02:01:27;;;;;;;;;;;2.00;96.10;;;;;;5039094;28;19942;-67
2022/01/01 02:03:56;;;;;;;;;;;2.10;96.20;;;;;;5056915;28;19950;-67
2022/01/01 02:06:22;;;;;;;;;;;2.10;96.10;;;;;;5038911;28;19947;-67
2022/01/01 02:08:50;;;;;;;;;;;2.10;96.00;;;;;;5056564;28;19985;-67
2022/01/01 02:11:17;;;;;;;;;;;2.00;95.80;;;;;;5056650;28;20295;-67
2022/01/01 02:18:48;;;;;;;;;;;1.80;95.60;;;;;;5056637;28;20305;-67
2022/01/01 02:21:14;;;;;;;;;;;1.70;95.60;;;;;;5056612;28;20034;-67
2022/01/01 02:23:45;;;;;;;;;;;1.80;95.80;;;;;;5056784;28;19946;-67
2022/01/01 02:26:12;;;;;;;;;;;1.70;95.70;;;;;;5056442;28;19948;-67
2022/01/01 02:28:48;;;;;;;;;;;1.70;95.90;;;;;;5038822;28;20038;-67
2022/01/01 02:31:14;;;;;;;;;;;1.70;95.80;;;;;;5038425;28;19955;-67
2022/01/01 02:33:40;;;;;;;;;;;1.70;95.90;;;;;;5056365;28;19939;-67
2022/01/01 02:36:05;;;;;;;;;;;1.60;95.90;;;;;;5056313;28;19942;-67
2022/01/01 02:38:32;;;;;;;;;;;1.60;95.80;;;;;;5056260;28;19938;-67
2022/01/01 02:40:57;;;;;;;;;;;1.50;95.90;;;;;;5056210;28;19944;-67
2022/01/01 02:43:23;;;;;;;;;;;1.70;96.10;;;;;;5056189;28;19986;-67
2022/01/01 02:45:52;;;;;;;;;;;1.70;96.10;;;;;;5056396;28;19943;-67
2022/01/01 02:48:18;;;;;;;;;;;1.70;96.10;;;;;;5055883;28;19941;-67
2022/01/01 02:50:43;;;;;;;;;;;1.70;96.10;;;;;;5056022;28;20033;-67
2022/01/01 02:53:12;;;;;;;;;;;1.60;96.00;;;;;;5055845;28;19971;-67
2022/01/01 02:55:38;;;;;;;;;;;1.60;95.90;;;;;;5055952;28;19950;-67
2022/01/01 02:58:04;;;;;;;;;;;1.60;96.00;;;;;;5055894;28;20395;-67
2022/01/01 03:00:29;;;;;;;;;;;1.60;96.10;;;;;;5055857;28;19946;-67
2022/01/01 03:02:55;;;;;;;;;;;1.70;96.20;;;;;;5055781;28;19945;-67
2022/01/01 03:05:20;;;;;;;;;;;1.80;96.20;;;;;;5055813;28;19940;-67
2022/01/01 03:07:46;;;;;;;;;;;1.80;96.20;;;;;;5055741;28;20394;-67
2022/01/01 03:10:11;;;;;;;;;;;1.80;96.10;;;;;;5055369;28;19979;-67
2022/01/01 03:12:37;;;;;;;;;;;1.70;95.90;;;;;;5055570;28;20054;-67
2022/01/01 03:15:03;;;;;;;;;;;1.50;95.70;;;;;;5055611;28;19940;-67
2022/01/01 03:17:28;;;;;;;;;;;1.50;96.00;;;;;;5055526;28;19940;-67
2022/01/01 03:19:54;;;;;;;;;;;1.60;96.10;;;;;;5055454;28;19945;-67
2022/01/01 03:22:19;;;;;;;;;;;1.60;96.00;;;;;;5055452;28;19941;-67
2022/01/01 03:24:45;;;;;;;;;;;1.50;96.00;;;;;;5055411;28;19984;-67
2022/01/01 03:27:10;;;;;;;;;;;1.60;96.10;;;;;;5055232;28;19942;-67
2022/01/01 03:29:36;;;;;;;;;;;1.70;96.20;;;;;;5055291;28;19953;-67
2022/01/01 03:32:02;;;;;;;;;;;1.70;96.20;;;;;;5055211;28;19958;-67
2022/01/01 03:34:27;;;;;;;;;;;1.80;96.20;;;;;;5037378;28;19949;-67
2022/01/01 03:36:53;;;;;;;;;;;1.80;96.10;;;;;;5055220;28;20443;-67
2022/01/01 03:39:19;;;;;;;;;;;1.80;96.00;;;;;;5055178;28;20293;-67
2022/01/01 03:41:44;;;;;;;;;;;1.70;95.80;;;;;;5055123;28;20346;-67
2022/01/01 03:44:10;;;;;;;;;;;1.60;95.70;;;;;;5055026;28;19954;-67
2022/01/01 03:46:35;;;;;;;;;;;1.50;95.60;;;;;;5037135;28;20034;-67
2022/01/01 03:49:01;;;;;;;;;;;1.50;95.60;;;;;;5055211;28;20356;-67
2022/01/01 03:51:27;;;;;;;;;;;1.50;95.80;;;;;;5054828;28;20497;-67
2022/01/01 03:53:52;;;;;;;;;;;1.50;95.80;;;;;;5054912;28;20415;-67
2022/01/01 03:56:18;;;;;;;;;;;1.40;95.80;;;;;;5054790;28;20302;-67
2022/01/01 03:58:43;;;;;;;;;;;1.30;95.60;;;;;;5054731;28;20309;-67
2022/01/01 04:01:09;;;;;;;;;;;1.30;95.70;;;;;;5054758;28;19938;-67
2022/01/01 04:03:34;;;;;;;;;;;1.40;95.90;;;;;;5054658;28;19951;-67
2022/01/01 04:06:00;;;;;;;;;;;1.40;96.00;;;;;;5055204;28;19954;-67
2022/01/01 04:08:25;;;;;;;;;;;1.40;96.00;;;;;;5054368;28;20453;-67
2022/01/01 04:10:51;;;;;;;;;;;1.40;96.00;;;;;;5054509;28;19945;-67
2022/01/01 04:13:17;;;;;;;;;;;1.50;96.10;;;;;;5036542;28;19997;-67
2022/01/01 04:15:42;;;;;;;;;;;1.60;96.20;;;;;;5053912;28;20308;-67
2022/01/01 04:18:13;;;;;;;;;;;1.70;96.20;;;;;;5054402;28;19944;-67
2022/01/01 04:20:39;;;;;;;;;;;1.70;96.20;;;;;;5054358;28;20286;-67
2022/01/01 04:23:09;;;;;;;;;;;1.80;96.10;;;;;;5054320;28;19938;-67
2022/01/01 04:25:35;;;;;;;;;;;1.70;95.90;;;;;;5054218;28;19938;-67
2022/01/01 04:28:00;;;;;;;;;;;1.70;95.90;;;;;;5054070;28;19939;-67
2022/01/01 04:30:28;;;;;;;;;;;1.70;95.90;;;;;;5054127;28;19942;-67
2022/01/01 04:32:57;;;;;;;;;;;1.80;96.00;;;;;;5054340;28;19961;-67
2022/01/01 04:35:23;;;;;;;;;;;1.80;96.00;;;;;;5054073;28;19943;-67
2022/01/01 04:37:49;;;;;;;;;;;1.80;95.80;;;;;;5053985;28;20027;-67
2022/01/01 04:40:14;;;;;;;;;;;1.80;95.70;;;;;;5053990;28;20429;-67
2022/01/01 04:42:40;;;;;;;;;;;1.70;95.50;;;;;;5053885;28;19936;-67
2022/01/01 04:45:06;;;;;;;;;;;1.70;95.50;;;;;;5053854;28;19950;-67
2022/01/01 04:47:31;;;;;;;;;;;1.60;95.40;;;;;;5053791;28;19947;-67
2022/01/01 04:49:57;;;;;;;;;;;1.60;95.40;;;;;;5053748;28;20001;-67
2022/01/01 04:52:23;;;;;;;;;;;1.60;95.40;;;;;;5053688;28;20051;-67
2022/01/01 04:54:48;;;;;;;;;;;1.50;95.40;;;;;;5053684;28;20290;-67
2022/01/01 04:57:14;;;;;;;;;;;1.50;95.40;;;;;;5053945;28;20317;-67
2022/01/01 04:59:40;;;;;;;;;;;1.50;95.30;;;;;;5053609;28;19943;-67
2022/01/01 05:02:06;;;;;;;;;;;1.50;95.20;;;;;;5035696;28;19943;-67
2022/01/01 05:04:32;;;;;;;;;;;1.40;95.20;;;;;;5053525;28;20044;-67
2022/01/01 05:06:58;;;;;;;;;;;1.40;95.20;;;;;;5053513;28;19982;-67
2022/01/01 05:09:23;;;;;;;;;;;1.40;95.30;;;;;;5072684;22;20060;-67
2022/01/01 05:11:49;;;;;;;;;;;1.40;95.30;;;;;;5073390;28;19967;-67
2022/01/01 05:14:15;;;;;;;;;;;1.40;95.30;;;;;;5073419;28;19984;-67
2022/01/01 05:16:41;;;;;;;;;;;1.40;95.30;;;;;;5073390;28;20403;-67
2022/01/01 05:19:07;;;;;;;;;;;1.40;95.40;;;;;;5072113;28;19991;-67
2022/01/01 05:21:35;;;;;;;;;;;1.30;95.40;;;;;;5073314;28;20029;-67
2022/01/01 05:24:01;;;;;;;;;;;1.30;95.50;;;;;;5073281;28;19955;-67
2022/01/01 05:26:27;;;;;;;;;;;1.30;95.60;;;;;;5072364;28;19938;-67
2022/01/01 05:28:52;;;;;;;;;;;1.40;95.60;;;;;;5073218;28;20022;-67
2022/01/01 05:31:21;;;;;;;;;;;1.30;95.50;;;;;;5073154;28;20370;-67
2022/01/01 05:33:47;;;;;;;;;;;1.20;95.20;;;;;;5073209;28;19941;-67
2022/01/01 05:36:13;;;;;;;;;;;1.20;95.40;;;;;;5073191;28;19936;-67
2022/01/01 05:38:40;;;;;;;;;;;1.10;95.30;;;;;;5073153;28;19945;-67
2022/01/01 05:41:05;;;;;;;;;;;1.10;95.40;;;;;;5073077;28;19938;-67
2022/01/01 05:43:31;;;;;;;;;;;1.10;95.40;;;;;;5073088;28;20314;-67
2022/01/01 05:45:57;;;;;;;;;;;0.90;95.20;;;;;;5073364;28;20018;-67
2022/01/01 05:48:22;;;;;;;;;;;1.00;95.40;;;;;;5073005;28;19943;-67
2022/01/01 05:50:48;;;;;;;;;;;1.00;95.40;;;;;;5073016;28;19948;-67
2022/01/01 05:53:14;;;;;;;;;;;1.10;95.50;;;;;;5072941;28;19962;-67
2022/01/01 05:55:40;;;;;;;;;;;1.10;95.50;;;;;;5072956;28;19943;-67
2022/01/01 05:58:06;;;;;;;;;;;1.20;95.50;;;;;;5072957;28;19946;-67
2022/01/01 06:00:31;;;;;;;;;;;1.30;95.60;;;;;;5072938;28;19945;-67
2022/01/01 06:03:00;;;;;;;;;;;1.30;95.40;;;;;;5072954;28;20009;-67
2022/01/01 06:05:26;;;;;;;;;;;1.30;95.30;;;;;;5072836;28;19979;-67
2022/01/01 06:07:53;;;;;;;;;;;1.10;95.20;;;;;;5072841;28;19943;-67
2022/01/01 06:10:19;;;;;;;;;;;0.90;95.10;;;;;;5072590;28;20041;-67
2022/01/01 06:12:45;;;;;;;;;;;0.90;95.30;;;;;;5072738;28;20369;-67
2022/01/01 06:15:10;;;;;;;;;;;0.80;95.40;;;;;;5072761;28;20034;-67
2022/01/01 06:17:36;;;;;;;;;;;0.90;95.60;;;;;;5072779;28;19941;-67
2022/01/01 06:20:02;;;;;;;;;;;1.00;95.70;;;;;;5071420;28;20008;-67
2022/01/01 06:22:28;;;;;;;;;;;1.10;95.80;;;;;;5072690;28;19946;-67
2022/01/01 06:24:53;;;;;;;;;;;1.00;95.70;;;;;;5072699;28;19937;-67
2022/01/01 06:27:19;;;;;;;;;;;1.10;95.70;;;;;;5072451;28;20318;-67
2022/01/01 06:29:45;;;;;;;;;;;1.20;95.80;;;;;;5072583;28;19945;-67
2022/01/01 06:32:11;;;;;;;;;;;1.20;95.80;;;;;;5071208;28;19964;-67
2022/01/01 06:34:37;;;;;;;;;;;1.30;95.80;;;;;;5072583;28;20027;-67
2022/01/01 06:37:02;;;;;;;;;;;1.30;95.80;;;;;;5072835;28;20296;-67
2022/01/01 06:39:28;;;;;;;;;;;1.30;95.70;;;;;;5076180;28;19945;-67
2022/01/01 06:41:53;;;;;;;;;;;1.40;95.60;;;;;;5076209;28;19992;-67
2022/01/01 06:44:19;;;;;;;;;;;1.30;95.50;;;;;;5076217;28;20099;-67
2022/01/01 06:46:44;;;;;;;;;;;1.40;95.40;;;;;;5076383;28;19945;-67
2022/01/01 06:49:10;;;;;;;;;;;1.40;95.40;;;;;;5076032;28;19946;-67
2022/01/01 06:51:36;;;;;;;;;;;1.40;95.40;;;;;;5075909;28;19956;-67
2022/01/01 06:54:02;;;;;;;;;;;1.40;95.30;;;;;;5074688;28;19959;-67
2022/01/01 06:56:28;;;;;;;;;;;1.40;95.20;;;;;;5075956;28;19944;-67
2022/01/01 06:58:53;;;;;;;;;;;1.30;95.00;;;;;;5075950;28;19949;-67
2022/01/01 07:01:19;;;;;;;;;;;1.20;95.00;;;;;;5075906;28;20302;-67
2022/01/01 07:03:45;;;;;;;;;;;1.30;95.00;;;;;;5075894;28;19965;-67
2022/01/01 07:06:10;;;;;;;;;;;1.20;94.70;;;;;;5074535;28;20323;-67
2022/01/01 07:08:36;;;;;;;;;;;1.10;94.80;;;;;;5075533;28;19978;-67
2022/01/01 07:11:01;;;;;;;;;;;1.10;94.80;;;;;;5075707;28;19997;-67
2022/01/01 07:13:27;;;;;;;;;;;1.10;95.10;;;;;;5075564;28;20003;-67
2022/01/01 07:15:52;;;;;;;;;;;1.10;95.20;;;;;;5075649;28;19937;-67
2022/01/01 07:18:18;;;;;;;;;;;1.10;95.20;;;;;;5074328;28;19952;-67
2022/01/01 07:20:43;;;;;;;;;;;1.10;95.20;;;;;;5075578;28;19943;-67
2022/01/01 07:23:10;;;;;;;;;;;1.20;95.20;;;;;;5075835;28;19950;-67
2022/01/01 07:25:35;;;;;;;;;;;1.10;95.10;;;;;;5075507;28;19941;-67
2022/01/01 07:28:01;;;;;;;;;;;1.20;95.00;;;;;;5075365;28;20417;-67
2022/01/01 07:30:26;;;;;;;;;;;1.10;94.90;;;;;;5074131;28;19990;-67
2022/01/01 07:32:52;;;;;;;;;;;1.10;94.60;;;;;;5075300;28;19955;-67
2022/01/01 07:35:19;;;;;;;;;;;1.10;94.60;;;;;;5074029;28;19949;-67
2022/01/01 07:37:44;;;;;;;;;;;1.10;94.60;;;;;;5073964;28;19946;-67
2022/01/01 07:40:11;;;;;;;;;;;1.10;94.70;;;;;;5075152;28;19990;-67
2022/01/01 07:42:37;;;;;;;;;;;1.10;94.60;;;;;;5075135;28;19943;-67
2022/01/01 07:45:03;;;;;;;;;;;1.10;94.70;;;;;;5075071;28;19979;-67
2022/01/01 07:47:29;;;;;;;;;;;1.10;94.70;;;;;;5075058;28;19988;-67
2022/01/01 07:49:54;;;;;;;;;;;1.20;94.70;;;;;;5074105;28;20318;-67
2022/01/01 07:52:20;;;;;;;;;;;1.10;94.80;;;;;;5074933;28;20013;-67
2022/01/01 07:54:45;;;;;;;;;;;1.00;94.80;;;;;;5074909;28;20432;-67
2022/01/01 07:57:11;;;;;;;;;;;0.90;95.00;;;;;;5075062;28;20520;-67
2022/01/01 07:59:37;;;;;;;;;;;0.90;95.30;;;;;;5074813;28;20402;-67
2022/01/01 08:02:02;;;;;;;;;;;0.90;95.30;;;;;;5074737;28;19946;-67
2022/01/01 08:04:28;;;;;;;;;;;0.90;95.40;;;;;;5074691;28;19942;-67
2022/01/01 08:06:53;;;;;;;;;;;0.90;95.30;;;;;;5074689;28;20404;-67
2022/01/01 08:09:19;;;;;;;;;;;0.90;95.30;;;;;;5074355;28;20064;-67
2022/01/01 08:11:44;;;;;;;;;;;0.80;95.30;;;;;;5074459;28;19947;-67
2022/01/01 08:14:10;;;;;;;;;;;0.90;95.40;;;;;;5074540;28;19949;-67
2022/01/01 08:16:58;;;;;;;;;;;1.00;95.50;;;;;;5074512;28;19994;-67
2022/01/01 08:19:23;;;;;;;;;;;1.00;95.40;;;;;;5074447;28;19936;-67
2022/01/01 08:21:49;;;;;;;;;;;1.20;95.50;;;;;;5074340;28;19946;-67
2022/01/01 08:24:14;;;;;;;;;;;1.20;95.40;;;;;;5073050;28;20039;-67
2022/01/01 08:26:40;;;;;;;;;;;1.20;95.30;;;;;;5074168;28;19980;-67
2022/01/01 08:29:05;;;;;;;;;;;1.30;95.20;;;;;;5074147;28;19939;-67
2022/01/01 08:31:31;;;;;;;;;;;1.30;95.00;;;;;;5074037;28;19940;-67
2022/01/01 08:33:56;;;;;;;;;;;1.30;95.00;;;;;;5074122;28;19946;-67
2022/01/01 08:36:22;;;;;;;;;;;1.20;94.90;;;;;;5074063;28;19938;-67
2022/01/01 08:38:48;;;;;;;;;;;1.20;94.80;;;;;;5072741;28;19957;-67
2022/01/01 08:41:13;;;;;;;;;;;1.20;94.90;;;;;;5073989;28;19940;-67
2022/01/01 08:43:39;;;;;;;;;;;1.20;95.00;;;;;;5072628;28;19948;-67
2022/01/01 08:46:04;;;;;;;;;;;1.20;95.00;;;;;;5073853;28;20301;-67
2022/01/01 08:48:30;;;;;;;;;;;1.30;94.90;;;;;;5073807;28;19940;-67
2022/01/01 08:50:55;;;;;;;;;;;1.30;94.90;;;;;;5072516;28;19955;-67
2022/01/01 08:53:21;;;;;;;;;;;1.30;94.90;;;;;;5073646;28;19955;-67
2022/01/01 08:55:48;;;;;;;;;;;1.40;95.00;;;;;;5073690;28;19935;-67
2022/01/01 08:58:13;;;;;;;;;;;1.40;95.10;;;;;;5072381;28;20390;-67
2022/01/01 09:00:40;;;;;;;;;;;1.50;95.10;;;;;;5073481;28;19945;-67
2022/01/01 09:03:06;;;;;;;;;;;1.60;95.00;;;;;;5073569;28;20318;-67
2022/01/01 09:05:31;;;;;;;;;;;1.50;94.70;;;;;;5073841;28;20035;-67
2022/01/01 09:07:57;;;;;;;;;;;1.60;94.80;;;;;;5073567;28;20037;-67
2022/01/01 09:10:23;;;;;;;;;;;1.70;94.90;;;;;;5073242;28;20401;-67
2022/01/01 09:12:48;;;;;;;;;;;1.80;94.80;;;;;;5073383;28;20551;-67
2022/01/01 09:15:14;;;;;;;;;;;1.90;94.80;;;;;;5072172;28;19947;-68
2022/01/01 09:17:39;;;;;;;;;;;2.00;94.70;;;;;;5073310;28;20041;-67
2022/01/01 09:20:05;;;;;;;;;;;2.00;94.60;;;;;;5073360;28;19944;-67
2022/01/01 09:22:31;;;;;;;;;;;2.00;94.40;;;;;;5073318;28;19942;-67
2022/01/01 09:24:56;;;;;;;;;;;2.00;94.10;;;;;;5073340;28;19964;-67
2022/01/01 09:27:22;;;;;;;;;;;2.00;94.10;;;;;;5073160;28;19949;-67
2022/01/01 09:29:47;;;;;;;;;;;2.00;93.90;;;;;;5073266;28;19952;-67
2022/01/01 09:32:13;;;;;;;;;;;2.00;93.90;;;;;;5073078;28;19970;-67
2022/01/01 09:34:38;;;;;;;;;;;2.10;93.80;;;;;;5073119;28;19940;-67
2022/01/01 09:37:04;;;;;;;;;;;2.10;93.50;;;;;;5073050;28;20108;-68
2022/01/01 09:39:30;;;;;;;;;;;2.10;93.70;;;;;;5072837;28;19935;-67
2022/01/01 09:41:56;;;;;;;;;;;2.20;93.70;;;;;;5073409;28;19944;-67
2022/01/01 09:44:22;;;;;;;;;;;2.20;93.40;;;;;;5073067;28;20015;-67
2022/01/01 09:46:49;;;;;;;;;;;2.20;93.30;;;;;;5073058;28;19969;-67
2022/01/01 09:49:16;;;;;;;;;;;2.10;93.40;;;;;;5073081;28;20425;-67
2022/01/01 09:51:42;;;;;;;;;;;2.10;93.60;;;;;;5072882;28;19974;-67
2022/01/01 09:54:07;;;;;;;;;;;2.10;93.70;;;;;;5072993;28;19983;-67
2022/01/01 09:56:33;;;;;;;;;;;2.10;93.90;;;;;;5072976;28;19939;-67
2022/01/01 09:58:58;;;;;;;;;;;2.10;94.10;;;;;;5072948;28;19950;-67
2022/01/01 10:01:24;;;;;;;;;;;2.20;94.40;;;;;;5073172;28;19947;-67
2022/01/01 10:03:51;;;;;;;;;;;2.20;94.40;;;;;;5072821;28;19990;-67
2022/01/01 10:06:17;;;;;;;;;;;2.40;94.60;;;;;;5072833;28;19935;-67
2022/01/01 10:08:57;;;;;;;;;;;2.50;94.60;;;;;;5072574;28;19983;-67
2022/01/01 10:11:23;;;;;;;;;;;2.50;94.30;;;;;;5072843;28;19944;-67
2022/01/01 10:13:49;;;;;;;;;;;2.40;94.10;;;;;;5076053;28;20415;-67
2022/01/01 10:16:15;;;;;;;;;;;2.40;94.20;;;;;;5076800;28;19944;-67
2022/01/01 10:18:41;;;;;;;;;;;2.40;94.40;;;;;;5077006;28;19962;-67
2022/01/01 10:21:12;;;;;;;;;;;2.40;94.50;;;;;;5076720;28;19939;-67
2022/01/01 10:23:39;;;;;;;;;;;2.50;94.60;;;;;;5076910;28;20031;-67
2022/01/01 10:29:10;;;;;;;;;;;2.50;94.80;;;;;;5076557;28;19951;-67
2022/01/01 10:31:37;;;;;;;;;;;2.40;94.80;;;;;;5076433;28;20010;-67
2022/01/01 10:34:10;;;;;;;;;;;2.40;94.80;;;;;;5076437;28;19964;-67
2022/01/01 10:36:36;;;;;;;;;;;2.40;95.00;;;;;;5076387;28;20399;-67
2022/01/01 10:39:12;;;;;;;;;;;2.50;95.20;;;;;;5076304;28;19945;-67
2022/01/01 10:41:48;;;;;;;;;;;2.40;95.20;;;;;;5076303;28;19989;-67
2022/01/01 10:44:13;;;;;;;;;;;2.40;95.40;;;;;;5076227;28;20353;-67
2022/01/01 10:46:39;;;;;;;;;;;2.40;95.50;;;;;;5076193;28;19939;-67
2022/01/01 10:49:31;;;;;;;;;;;2.40;95.60;;;;;;5076120;28;19980;-67
2022/01/01 10:52:16;;;;;;;;;;;2.50;95.70;;;;;;5075879;28;20004;-67
2022/01/01 10:54:48;;;;;;;;;;;2.50;96.00;;;;;;5075643;28;19940;-66
2022/01/01 10:57:14;;;;;;;;;;;2.50;96.00;;;;;;5076326;28;19991;-67
2022/01/01 10:59:40;;;;;;;;;;;2.60;96.10;;;;;;5074675;28;19946;-67
2022/01/01 11:02:10;;;;;;;;;;;2.70;96.20;;;;;;5074609;28;19977;-67
2022/01/01 11:04:36;;;;;;;;;;;2.80;96.20;;;;;;5075929;28;19945;-67
2022/01/01 11:07:02;;;;;;;;;;;2.90;96.10;;;;;;5075849;28;19947;-67
2022/01/01 11:09:29;;;;;;;;;;;2.90;96.10;;;;;;5075507;28;19986;-67
2022/01/01 11:12:02;;;;;;;;;;;3.00;96.00;;;;;;5075724;28;20003;-67
2022/01/01 11:14:28;;;;;;;;;;;3.00;95.90;;;;;;5075667;28;19934;-67
2022/01/01 11:16:54;;;;;;;;;;;3.00;95.90;;;;;;5075340;28;19946;-67
2022/01/01 11:19:21;;;;;;;;;;;3.00;95.90;;;;;;5075543;28;19939;-66
2022/01/01 11:21:47;;;;;;;;;;;3.00;95.90;;;;;;5075480;28;19948;-67
2022/01/01 11:24:13;;;;;;;;;;;3.10;96.00;;;;;;5074179;28;19946;-67
2022/01/01 11:26:40;;;;;;;;;;;3.30;96.20;;;;;;5075675;28;20019;-67
2022/01/01 11:29:06;;;;;;;;;;;3.40;96.30;;;;;;5075358;28;19947;-67
2022/01/01 11:31:32;;;;;;;;;;;3.60;96.30;;;;;;5075372;28;20425;-67
2022/01/01 11:34:00;;;;;;;;;;;4.00;96.20;;;;;;5073765;28;20000;-67
2022/01/01 11:36:28;;;;;;;;;;;4.40;96.30;;;;;;5075294;28;19947;-67
2022/01/01 11:38:54;;;;;;;;;;;4.90;96.00;;;;;;5068470;28;19948;-67
2022/01/01 11:41:20;;;;;;;;;;;5.30;95.50;;;;;;5053696;28;19949;-67
2022/01/01 11:43:53;;;;;;;;;;;5.50;94.00;;;;;;5055055;28;20317;-67
2022/01/01 11:46:20;;;;;;;;;;;5.40;91.80;;;;;;5055361;28;20030;-67
2022/01/01 11:48:47;;;;;;;;;;;5.40;91.80;;;;;;5055088;28;19993;-67
2022/01/01 11:51:20;;;;;;;;;;;5.50;91.90;;;;;;5054992;28;19945;-67
2022/01/01 11:54:04;;;;;;;;;;;5.50;91.30;;;;;;5054898;28;20007;-67
2022/01/01 11:56:58;;;;;;;;;;;5.40;91.30;;;;;;5054897;28;19988;-67
2022/01/01 11:59:39;;;;;;;;;;;5.30;92.00;;;;;;5054896;28;19940;-67
2022/01/01 12:02:19;;;;;;;;;;;5.50;92.80;;;;;;5054780;28;19942;-67
2022/01/01 12:04:46;;;;;;;;;;;5.90;92.60;;;;;;5054753;28;19950;-67
2022/01/01 12:07:12;;;;;;;;;;;6.30;91.20;;;;;;5054748;28;19999;-67
2022/01/01 12:10:07;;;;;;;;;;;6.50;90.20;;;;;;5054468;28;20059;-67
2022/01/01 12:12:38;;;;;;;;;;;6.40;89.90;;;;;;5054328;28;20007;-67
2022/01/01 12:15:27;;;;;;;;;;;6.20;90.30;;;;;;5054741;28;20088;-67
2022/01/01 12:17:53;;;;;;;;;;;6.30;91.00;;;;;;5047570;28;19971;-67
2022/01/01 12:20:21;;;;;;;;;;;6.40;91.00;;;;;;5054439;28;19989;-67
2022/01/01 12:22:47;;;;;;;;;;;6.10;90.20;;;;;;5054384;28;19943;-67
2022/01/01 12:25:14;;;;;;;;;;;6.10;90.90;;;;;;5054207;28;19956;-67
2022/01/01 12:27:47;;;;;;;;;;;6.10;91.60;;;;;;5052951;28;19950;-67
2022/01/01 12:30:16;;;;;;;;;;;6.20;91.20;;;;;;5054225;28;19991;-67
2022/01/01 12:32:45;;;;;;;;;;;6.30;90.80;;;;;;5054074;28;19958;-67
2022/01/01 12:35:17;;;;;;;;;;;6.10;91.00;;;;;;5053943;28;19956;-67
2022/01/01 12:37:43;;;;;;;;;;;5.90;91.90;;;;;;5054083;28;20406;-67
2022/01/01 12:40:09;;;;;;;;;;;6.00;92.20;;;;;;5054322;28;19947;-67
2022/01/01 12:42:35;;;;;;;;;;;6.10;92.30;;;;;;5053985;28;20023;-67
2022/01/01 12:45:02;;;;;;;;;;;6.70;91.10;;;;;;5052700;28;20375;-67
2022/01/01 12:47:28;;;;;;;;;;;6.90;90.10;;;;;;5052681;28;19962;-67
2022/01/01 12:50:02;;;;;;;;;;;7.30;88.90;;;;;;5052647;28;19950;-67
2022/01/01 12:52:28;;;;;;;;;;;7.20;87.50;;;;;;5054069;28;19963;-67
2022/01/01 12:55:02;;;;;;;;;;;7.10;88.30;;;;;;5053840;28;19949;-67
2022/01/01 12:57:29;;;;;;;;;;;6.90;88.80;;;;;;5053757;28;20428;-67
2022/01/01 12:59:54;;;;;;;;;;;6.80;89.20;;;;;;5053971;28;19968;-67
2022/01/01 13:02:20;;;;;;;;;;;6.70;89.80;;;;;;5053675;28;20070;-67
2022/01/01 13:04:45;;;;;;;;;;;6.50;90.50;;;;;;5053632;28;19941;-67
2022/01/01 13:07:11;;;;;;;;;;;6.40;90.80;;;;;;5052604;28;20454;-67
2022/01/01 13:09:37;;;;;;;;;;;6.40;91.30;;;;;;5060989;22;20490;-67
2022/01/01 13:12:03;;;;;;;;;;;6.30;91.40;;;;;;5053324;28;19970;-67
2022/01/01 13:14:34;;;;;;;;;;;6.20;91.90;;;;;;5052951;28;20515;-67
2022/01/01 13:17:02;;;;;;;;;;;6.30;92.20;;;;;;5053370;28;19945;-67
2022/01/01 13:19:28;;;;;;;;;;;6.30;92.10;;;;;;5053381;28;19942;-67
2022/01/01 13:21:55;;;;;;;;;;;6.20;92.00;;;;;;5053349;28;19945;-67
2022/01/01 13:24:28;;;;;;;;;;;6.10;92.30;;;;;;5053295;28;20393;-67
2022/01/01 13:26:54;;;;;;;;;;;6.00;92.50;;;;;;5053177;28;19947;-67
2022/01/01 13:29:23;;;;;;;;;;;5.90;92.80;;;;;;5053215;28;20358;-67
2022/01/01 13:31:55;;;;;;;;;;;5.90;93.00;;;;;;5053106;28;20041;-67
2022/01/01 13:34:21;;;;;;;;;;;6.00;93.30;;;;;;5053162;28;20004;-67
2022/01/01 13:36:46;;;;;;;;;;;6.00;93.20;;;;;;5053385;28;19945;-67
2022/01/01 13:39:12;;;;;;;;;;;6.00;93.40;;;;;;5035218;28;19949;-67
2022/01/01 13:41:42;;;;;;;;;;;5.90;93.10;;;;;;5053050;28;19943;-67
2022/01/01 13:44:26;;;;;;;;;;;5.90;93.10;;;;;;5053076;28;19944;-67
2022/01/01 13:46:54;;;;;;;;;;;5.90;93.20;;;;;;5052238;28;19937;-67
2022/01/01 13:49:20;;;;;;;;;;;5.80;93.10;;;;;;5052951;28;19982;-67
2022/01/01 13:51:53;;;;;;;;;;;5.70;93.60;;;;;;5052870;28;19983;-67
2022/01/01 13:54:19;;;;;;;;;;;5.70;93.80;;;;;;5035169;28;19947;-67
2022/01/01 13:56:49;;;;;;;;;;;5.70;93.80;;;;;;5052892;28;20014;-67
2022/01/01 13:59:14;;;;;;;;;;;5.70;93.90;;;;;;5052912;28;19964;-67
2022/01/01 14:01:42;;;;;;;;;;;5.70;94.10;;;;;;5052868;28;19950;-67
2022/01/01 14:04:09;;;;;;;;;;;5.70;94.30;;;;;;5052877;28;19945;-67
2022/01/01 14:06:35;;;;;;;;;;;5.70;94.30;;;;;;5052820;28;19946;-66
2022/01/01 14:09:03;;;;;;;;;;;5.60;94.30;;;;;;5031378;28;20080;-66
2022/01/01 14:11:29;;;;;;;;;;;5.50;94.40;;;;;;5032907;28;20018;-66
2022/01/01 14:14:02;;;;;;;;;;;5.60;94.50;;;;;;5032776;28;19970;-66
2022/01/01 14:16:30;;;;;;;;;;;5.50;94.60;;;;;;5032871;28;19942;-66
2022/01/01 14:18:56;;;;;;;;;;;5.40;94.60;;;;;;5032853;28;20026;-66
2022/01/01 14:21:23;;;;;;;;;;;5.40;94.70;;;;;;5032838;28;20033;-66
2022/01/01 14:23:52;;;;;;;;;;;5.40;94.90;;;;;;5032778;28;20401;-66
2022/01/01 14:26:21;;;;;;;;;;;5.40;95.10;;;;;;5032948;28;19946;-66
2022/01/01 14:28:47;;;;;;;;;;;5.30;95.00;;;;;;5032684;28;19948;-66
2022/01/01 14:31:13;;;;;;;;;;;5.20;95.10;;;;;;5032647;28;19955;-66
2022/01/01 14:33:39;;;;;;;;;;;5.20;95.30;;;;;;5032606;28;19969;-66
2022/01/01 14:36:08;;;;;;;;;;;5.20;95.40;;;;;;5032706;28;19936;-66
2022/01/01 14:38:34;;;;;;;;;;;5.20;95.40;;;;;;5031393;28;20410;-66